Terminal Aerodrome Forecast
Issued by NWS Brownsville, TX

Home | Current Version | Previous Version | Text Only | Print | Product List | Glossary On
Versions: 1 2 3 4 5 6 7 8 9 10 11 12 13 14 15 16 17 18 19 20
000
FTUS44 KBRO 012300 RRA
TAFHRL
TAF
KHRL 012341Z 0200/0224 13011KT P6SM SCT035 BKN250
     FM020200 14009KT P6SM VCTS SCT060CB OVC250
     FM020500 14003KT P6SM SCT020
      TEMPO 0208/0212 BKN020
     FM021200 17005KT P6SM BKN025
     FM021600 18006KT P6SM VCTS BKN035CB PROB30 0216/0220 2SM TSRA
      BKN025CB
     FM022000 11010KT P6SM SCT040 BKN200=

USA.gov is the U.S. government's official web portal to all federal, state and local government web resources and services.